Time;durP1;ratioP1;P1;durP2;ratioP2;P2;SDS_P1;SDS_P2;PMS_P1;PMS_P2;Temp;Humidity;BMP_temperature;BMP_pressure;BME280_temperature;BME280_humidity;BME280_pressure;Samples;Min_cycle;Max_cycle;Signal;HPM_P1;HPM_P2
2022/12/07 00:01:07;;;;;;;27.13;17.53;;;;;;;11.10;74.74;94623.66;5008814;28;20196;-48
2022/12/07 00:03:35;;;;;;;31.37;18.03;;;;;;;11.09;74.58;94616.91;5009349;28;20192;-48
2022/12/07 00:06:02;;;;;;;24.77;17.97;;;;;;;11.05;74.56;94602.78;5008700;28;20199;-48
2022/12/07 00:08:29;;;;;;;28.20;18.00;;;;;;;11.09;74.44;94614.34;5009122;28;20188;-48
2022/12/07 00:11:02;;;;;;;26.43;18.13;;;;;;;10.94;74.58;94585.88;5009030;28;20235;-48
2022/12/07 00:13:28;;;;;;;28.27;17.77;;;;;;;11.09;74.59;94616.09;5009176;28;20314;-47
2022/12/07 00:15:55;;;;;;;24.30;17.40;;;;;;;11.10;74.37;94612.59;5009006;28;20200;-48
2022/12/07 00:18:22;;;;;;;28.53;18.47;;;;;;;11.09;74.72;94608.41;5008821;28;20211;-49
2022/12/07 00:20:49;;;;;;;23.97;17.77;;;;;;;11.09;74.52;94606.66;5008936;28;20200;-48
2022/12/07 00:23:15;;;;;;;25.63;17.03;;;;;;;11.08;74.64;94610.16;5008773;28;20191;-48
2022/12/07 00:25:42;;;;;;;34.63;18.30;;;;;;;10.62;74.43;94545.38;5008774;28;20196;-48
2022/12/07 00:28:10;;;;;;;31.23;18.77;;;;;;;11.07;74.48;94613.69;5012366;28;20250;-48
2022/12/07 00:30:37;;;;;;;28.90;18.10;;;;;;;11.09;74.34;94616.09;5013005;28;20574;-48
2022/12/07 00:33:04;;;;;;;25.30;16.57;;;;;;;11.08;74.66;94609.38;5012272;28;20618;-48
2022/12/07 00:35:30;;;;;;;24.53;16.63;;;;;;;11.09;74.49;94608.41;5013218;28;20197;-48
2022/12/07 00:37:57;;;;;;;24.17;16.77;;;;;;;11.07;74.60;94608.56;5012650;28;20220;-48
2022/12/07 00:40:24;;;;;;;27.10;17.07;;;;;;;11.09;74.37;94618.66;5012398;28;20192;-49
2022/12/07 00:42:51;;;;;;;25.90;17.37;;;;;;;11.09;74.48;94616.91;5012339;28;20197;-47
2022/12/07 00:45:19;;;;;;;25.97;18.27;;;;;;;11.09;74.50;94616.91;5012991;28;20215;-49
2022/12/07 00:47:46;;;;;;;29.77;18.87;;;;;;;11.09;74.66;94610.97;5011965;28;20196;-48
2022/12/07 00:50:13;;;;;;;27.57;17.83;;;;;;;11.09;74.48;94605.84;5012552;28;20184;-49
2022/12/07 00:52:39;;;;;;;26.73;18.07;;;;;;;11.08;74.49;94615.28;5012438;28;20660;-49
2022/12/07 00:55:07;;;;;;;28.83;18.13;;;;;;;11.08;74.32;94601.69;5012409;28;20618;-47
2022/12/07 00:57:34;;;;;;;27.43;17.03;;;;;;;11.08;74.52;94607.63;5011883;28;20223;-48
2022/12/07 01:00:00;;;;;;;28.90;17.63;;;;;;;11.08;74.58;94609.38;5012463;28;20188;-48
2022/12/07 01:02:28;;;;;;;28.53;16.93;;;;;;;11.07;74.52;94607.78;5011867;28;20205;-48
2022/12/07 01:04:55;;;;;;;25.83;17.03;;;;;;;11.03;74.67;94602.13;5012386;28;20207;-48
2022/12/07 01:07:22;;;;;;;23.20;16.20;;;;;;;11.07;74.42;94606.00;5012140;28;20242;-48
2022/12/07 01:09:49;;;;;;;25.70;17.27;;;;;;;11.07;74.52;94602.66;5011885;28;20258;-48
2022/12/07 01:12:15;;;;;;;28.00;17.80;;;;;;;11.06;74.42;94604.41;5012472;28;20188;-48
2022/12/07 01:14:42;;;;;;;29.97;18.50;;;;;;;11.01;74.67;94592.03;5012020;28;20203;-48
2022/12/07 01:17:09;;;;;;;26.67;17.73;;;;;;;11.06;74.52;94601.84;5011443;28;20184;-48
2022/12/07 01:19:37;;;;;;;30.27;18.33;;;;;;;11.05;74.62;94589.97;5011692;28;20227;-49
2022/12/07 01:22:04;;;;;;;27.93;19.33;;;;;;;11.05;74.76;94589.97;5011600;28;20181;-50
2022/12/07 01:24:31;;;;;;;28.47;18.30;;;;;;;11.06;74.52;94591.63;5012244;28;20192;-49
2022/12/07 01:26:58;;;;;;;30.33;18.03;;;;;;;11.04;74.62;94586.63;5011685;28;20224;-48
2022/12/07 01:29:24;;;;;;;25.07;16.73;;;;;;;11.03;74.64;94579.91;5011750;28;20185;-47
2022/12/07 01:31:51;;;;;;;29.83;19.20;;;;;;;11.02;74.66;94583.41;5011162;28;20196;-48
2022/12/07 01:34:18;;;;;;;26.60;17.50;;;;;;;10.99;74.67;94581.13;5011606;28;20199;-47
2022/12/07 01:36:46;;;;;;;28.60;18.37;;;;;;;10.98;74.63;94583.84;5011901;28;20189;-48
2022/12/07 01:39:13;;;;;;;25.57;17.67;;;;;;;10.94;74.67;94578.19;5011746;28;20224;-49
2022/12/07 01:41:43;;;;;;;25.50;17.13;;;;;;;10.85;74.73;94578.25;5011113;28;20207;-47
2022/12/07 01:44:22;;;;;;;29.27;18.47;;;;;;;10.92;74.87;94579.28;5011056;28;20184;-48
2022/12/07 01:46:50;;;;;;;28.17;17.87;;;;;;;10.93;74.74;94584.25;5011129;28;20196;-48
2022/12/07 01:49:26;;;;;;;25.77;17.47;;;;;;;10.84;74.84;94574.06;5011273;28;20196;-47
2022/12/07 01:52:01;;;;;;;26.77;17.60;;;;;;;10.93;74.97;94578.34;5011270;28;20215;-48
2022/12/07 01:54:28;;;;;;;26.83;16.73;;;;;;;10.83;74.56;94567.34;5011137;28;20311;-47
2022/12/07 01:56:57;;;;;;;23.97;17.03;;;;;;;10.73;74.84;94552.84;5010695;28;20885;-48
2022/12/07 01:59:26;;;;;;;29.90;17.27;;;;;;;10.88;74.68;94560.03;5010350;28;20219;-48
2022/12/07 02:01:55;;;;;;;28.03;16.60;;;;;;;10.92;74.68;94556.25;5010961;28;20285;-48
2022/12/07 02:04:23;;;;;;;24.50;16.23;;;;;;;10.92;74.70;94564.72;5010915;28;20358;-48
2022/12/07 02:06:50;;;;;;;23.70;16.63;;;;;;;10.92;74.84;94559.59;5010942;28;20288;-48
2022/12/07 02:09:18;;;;;;;25.00;16.73;;;;;;;10.92;74.85;94562.16;5011010;28;20188;-48
2022/12/07 02:11:45;;;;;;;22.23;16.60;;;;;;;10.93;74.88;94568.13;5010283;28;20614;-48
2022/12/07 02:14:12;;;;;;;21.67;16.30;;;;;;;10.92;74.64;94561.38;5010826;28;20211;-48
2022/12/07 02:16:49;;;;;;;25.40;15.77;;;;;;;10.76;75.12;94542.34;5010415;28;20188;-47
2022/12/07 02:19:46;;;;;;;22.30;15.70;;;;;;;10.90;74.83;94569.19;5010445;28;20306;-47
2022/12/07 02:22:29;;;;;;;27.60;17.63;;;;;;;10.78;74.80;94539.63;4994058;28;20694;-48
2022/12/07 02:25:06;;;;;;;25.07;16.93;;;;;;;10.91;74.71;94563.13;5009888;28;20373;-48
2022/12/07 02:27:44;;;;;;;23.73;16.40;;;;;;;10.91;74.70;94560.56;5010427;28;20196;-50
2022/12/07 02:30:14;;;;;;;24.27;15.10;;;;;;;10.92;74.75;94548.56;5010256;28;20640;-48
2022/12/07 02:32:52;;;;;;;25.90;16.07;;;;;;;10.92;74.83;94553.69;5010642;28;20191;-48
2022/12/07 02:35:22;;;;;;;23.83;16.40;;;;;;;10.81;74.68;94539.34;5010252;28;20196;-48
2022/12/07 02:37:59;;;;;;;23.50;16.73;;;;;;;10.93;74.80;94557.88;5010588;28;20196;-49
2022/12/07 02:40:30;;;;;;;24.80;15.57;;;;;;;10.91;74.86;94557.19;5010155;28;20196;-48
2022/12/07 02:43:03;;;;;;;28.73;16.60;;;;;;;10.86;74.82;94549.97;5009977;28;20229;-48
2022/12/07 02:45:35;;;;;;;21.23;15.57;;;;;;;10.85;74.65;94556.03;5010210;28;20295;-48
2022/12/07 02:48:03;;;;;;;25.10;16.37;;;;;;;10.82;74.97;94552.94;5009925;28;20189;-49
2022/12/07 02:50:30;;;;;;;23.03;15.73;;;;;;;10.84;74.86;94559.53;5009575;28;20698;-48
2022/12/07 02:52:56;;;;;;;23.23;15.47;;;;;;;10.81;75.01;94544.47;5010291;28;20196;-48
2022/12/07 02:55:27;;;;;;;23.40;15.07;;;;;;;10.79;75.00;94539.50;5009282;28;20255;-48
2022/12/07 02:58:24;;;;;;;24.10;15.90;;;;;;;10.78;74.91;94542.19;5010437;28;20259;-48
2022/12/07 03:01:05;;;;;;;22.77;16.03;;;;;;;10.69;74.79;94525.94;5010361;28;20283;-48
2022/12/07 03:03:36;;;;;;;23.57;16.23;;;;;;;10.73;74.88;94534.16;5010231;28;20188;-47
2022/12/07 03:06:14;;;;;;;19.87;14.63;;;;;;;10.72;75.12;94535.09;5009947;28;20251;-46
2022/12/07 03:08:52;;;;;;;21.20;14.23;;;;;;;10.71;74.87;94531.75;5008741;28;20254;-48
2022/12/07 03:11:26;;;;;;;23.77;15.13;;;;;;;10.69;74.88;94527.69;5009139;28;20211;-47
2022/12/07 03:14:03;;;;;;;22.17;15.20;;;;;;;10.67;74.96;94522.75;5010054;28;20207;-48
2022/12/07 03:16:35;;;;;;;23.07;15.90;;;;;;;10.65;75.02;94524.63;5009524;28;20188;-48
2022/12/07 03:19:06;;;;;;;24.03;15.73;;;;;;;10.62;74.87;94529.22;5009830;28;20224;-48
2022/12/07 03:21:37;;;;;;;20.67;14.80;;;;;;;10.62;74.90;94529.22;5009401;28;20192;-47
2022/12/07 03:24:08;;;;;;;20.17;14.80;;;;;;;10.61;74.83;94537.84;5009291;28;20556;-47
2022/12/07 03:26:40;;;;;;;24.03;15.67;;;;;;;10.59;75.17;94532.06;5009149;28;20192;-48
2022/12/07 03:29:12;;;;;;;22.50;14.37;;;;;;;10.59;75.09;94539.75;4989806;28;20201;-48
2022/12/07 03:31:43;;;;;;;21.70;14.87;;;;;;;10.58;75.05;94536.38;4989506;28;20189;-49
2022/12/07 03:34:18;;;;;;;22.10;15.27;;;;;;;10.34;74.96;94501.09;4989385;28;20712;-48
2022/12/07 03:36:50;;;;;;;23.37;15.17;;;;;;;10.55;75.18;94540.00;4989399;28;20192;-46
2022/12/07 03:39:24;;;;;;;22.90;15.63;;;;;;;10.56;75.02;94535.69;5002093;28;20295;-47
2022/12/07 03:41:52;;;;;;;24.23;15.87;;;;;;;10.55;75.10;94529.78;5008535;28;20196;-48
2022/12/07 03:44:19;;;;;;;23.93;14.90;;;;;;;10.05;74.96;94445.75;5009027;28;20196;-49
2022/12/07 03:46:58;;;;;;;22.80;14.93;;;;;;;10.46;75.01;94519.59;5008988;28;20200;-47
2022/12/07 03:49:29;;;;;;;19.00;13.10;;;;;;;10.55;75.02;94531.53;5009259;28;20188;-47
2022/12/07 03:52:01;;;;;;;24.03;16.23;;;;;;;10.56;75.02;94530.59;5009217;28;20544;-47
2022/12/07 03:54:34;;;;;;;19.80;14.00;;;;;;;10.42;75.02;94510.59;5008782;28;20188;-49
2022/12/07 03:57:02;;;;;;;21.30;13.97;;;;;;;10.55;75.15;94526.44;5008552;28;20232;-47
2022/12/07 03:59:31;;;;;;;22.20;14.57;;;;;;;10.54;75.17;94522.28;5008418;28;20227;-47
2022/12/07 04:02:06;;;;;;;23.93;15.20;;;;;;;10.53;75.03;94518.06;5010174;28;20192;-48
2022/12/07 04:04:33;;;;;;;20.23;14.47;;;;;;;10.54;75.19;94510.28;5010355;28;20188;-47
2022/12/07 04:07:00;;;;;;;22.83;15.33;;;;;;;10.54;74.96;94522.28;5013111;28;20180;-47
2022/12/07 04:09:27;;;;;;;19.27;14.83;;;;;;;10.54;74.93;94517.94;5012672;28;20287;-47
2022/12/07 04:11:54;;;;;;;22.00;15.10;;;;;;;10.51;75.12;94520.78;5012101;28;20204;-48
2022/12/07 04:14:21;;;;;;;20.90;14.50;;;;;;;10.53;75.10;94518.06;5012880;28;20196;-48
2022/12/07 04:16:49;;;;;;;22.30;14.87;;;;;;;10.53;74.94;94520.63;5012503;28;20235;-48
2022/12/07 04:19:18;;;;;;;22.70;14.93;;;;;;;10.53;75.19;94524.03;5011805;28;20220;-48
2022/12/07 04:21:45;;;;;;;20.93;14.67;;;;;;;10.52;75.03;94524.94;5012679;28;20196;-47
2022/12/07 04:24:13;;;;;;;22.70;14.80;;;;;;;10.53;75.11;94521.47;5012629;28;20192;-48
2022/12/07 04:26:40;;;;;;;22.50;15.27;;;;;;;10.51;75.00;94528.47;5012226;28;20667;-49
2022/12/07 04:29:07;;;;;;;23.97;15.33;;;;;;;10.51;74.98;94523.34;5013101;28;20272;-48
2022/12/07 04:31:34;;;;;;;23.70;16.13;;;;;;;10.50;75.12;94529.41;5012824;28;20188;-48
2022/12/07 04:34:01;;;;;;;23.87;15.63;;;;;;;10.49;75.16;94526.97;5013025;28;20181;-49
2022/12/07 04:36:29;;;;;;;19.83;14.47;;;;;;;10.48;75.10;94521.06;5012853;28;20195;-49
2022/12/07 04:38:56;;;;;;;21.30;14.67;;;;;;;10.47;75.17;94519.47;5012225;28;20679;-47
2022/12/07 04:41:26;;;;;;;25.03;16.60;;;;;;;10.24;74.82;94490.06;5012223;28;20192;-48
2022/12/07 04:43:54;;;;;;;23.37;15.33;;;;;;;10.36;75.00;94517.06;5011958;28;20259;-53
2022/12/07 04:46:21;;;;;;;21.50;15.33;;;;;;;10.43;75.37;94530.91;5006807;28;20568;-48
2022/12/07 04:48:48;;;;;;;22.37;15.50;;;;;;;10.40;74.96;94533.72;4992567;28;20204;-48
2022/12/07 04:51:19;;;;;;;22.13;14.97;;;;;;;10.38;75.24;94527.16;4992676;28;20197;-48
2022/12/07 04:53:48;;;;;;;24.73;16.27;;;;;;;10.40;75.35;94532.94;5011457;28;20613;-47
2022/12/07 04:56:15;;;;;;;8.93;7.30;;;;;;;10.49;97.55;94512.47;5012015;28;20216;-49
2022/12/07 04:58:42;;;;;;;15.47;8.97;;;;;;;11.32;100.00;94527.72;5011913;28;20200;-47
2022/12/07 05:01:09;;;;;;;18.13;10.63;;;;;;;12.08;100.00;94524.63;5012847;28;20212;-48
2022/12/07 05:03:37;;;;;;;13.87;9.77;;;;;;;12.76;100.00;94527.22;5012611;28;20605;-48
2022/12/07 05:06:04;;;;;;;12.77;9.73;;;;;;;13.32;100.00;94530.13;5012861;28;20283;-47
2022/12/07 05:08:32;;;;;;;16.23;10.33;;;;;;;13.62;100.00;94533.06;5010955;28;20207;-48
2022/12/07 05:11:01;;;;;;;12.83;9.63;;;;;;;13.68;100.00;94538.34;5012129;28;20188;-48
2022/12/07 05:13:28;;;;;;;17.87;9.87;;;;;;;13.63;100.00;94532.88;5011367;28;20193;-47
2022/12/07 05:15:54;;;;;;;18.67;10.40;;;;;;;13.53;100.00;94532.25;5011777;28;20764;-47
2022/12/07 05:18:21;;;;;;;14.47;10.40;;;;;;;13.40;99.94;94530.13;5012125;28;20204;-47
2022/12/07 05:20:48;;;;;;;16.57;10.53;;;;;;;13.22;97.15;94525.16;5011316;28;20228;-49
2022/12/07 05:23:15;;;;;;;13.53;10.27;;;;;;;13.13;95.03;94531.19;5011600;28;20636;-52
2022/12/07 05:25:42;;;;;;;14.63;10.47;;;;;;;13.00;92.63;94533.41;5011657;28;20197;-49
2022/12/07 05:28:10;;;;;;;17.63;10.57;;;;;;;12.85;90.64;94528.06;5011338;28;20211;-48
2022/12/07 05:30:37;;;;;;;12.67;10.50;;;;;;;12.72;89.22;94530.25;5011133;28;20203;-48
2022/12/07 05:33:05;;;;;;;20.00;10.90;;;;;;;12.61;88.34;94527.94;5011124;28;20618;-47
2022/12/07 05:35:31;;;;;;;19.10;12.17;;;;;;;12.49;87.38;94538.50;5011515;28;20702;-47
2022/12/07 05:37:58;;;;;;;16.17;11.50;;;;;;;12.37;86.79;94523.53;5011385;28;20615;-49
2022/12/07 05:40:25;;;;;;;16.93;11.80;;;;;;;12.29;86.13;94526.84;5011382;28;20224;-48
2022/12/07 05:42:52;;;;;;;17.83;12.27;;;;;;;12.19;85.61;94518.47;5011264;28;20193;-48
2022/12/07 05:45:20;;;;;;;17.13;11.03;;;;;;;12.09;85.21;94515.19;5011206;28;20199;-48
2022/12/07 05:47:47;;;;;;;19.23;13.40;;;;;;;12.01;84.87;94510.84;5013804;28;20196;-47
2022/12/07 05:50:13;;;;;;;17.63;12.20;;;;;;;11.92;84.87;94515.09;5010582;28;20204;-47
2022/12/07 05:52:40;;;;;;;20.60;12.47;;;;;;;11.85;84.67;94511.53;5010236;28;20566;-50
2022/12/07 05:55:08;;;;;;;20.17;13.87;;;;;;;11.77;84.44;94512.22;5011363;28;20189;-47
2022/12/07 05:57:35;;;;;;;21.00;12.63;;;;;;;11.71;84.47;94517.97;5010966;28;20703;-48
2022/12/07 06:00:01;;;;;;;17.20;12.77;;;;;;;11.65;84.32;94515.19;5011638;28;20212;-47
2022/12/07 06:02:29;;;;;;;19.40;13.93;;;;;;;11.57;84.27;94513.34;5011117;28;20286;-47
2022/12/07 06:04:56;;;;;;;18.13;13.10;;;;;;;11.53;84.07;94515.44;4991508;28;20193;-48
2022/12/07 06:07:22;;;;;;;20.80;14.30;;;;;;;11.03;83.87;94441.72;5008130;28;20200;-53
2022/12/07 06:09:49;;;;;;;20.33;13.83;;;;;;;11.45;84.09;94520.47;5010473;28;20189;-48
2022/12/07 06:15:00;;;;;;;21.83;13.27;;;;;;;11.39;83.84;94520.25;5010778;28;20188;-49
2022/12/07 06:17:28;;;;;;;18.23;13.43;;;;;;;11.36;83.77;94529.03;5010154;28;20188;-47
2022/12/07 06:19:55;;;;;;;21.17;14.30;;;;;;;11.34;83.83;94523.25;5009876;28;20212;-48
2022/12/07 06:22:22;;;;;;;19.80;13.73;;;;;;;11.32;83.97;94524.38;5008274;28;20203;-48
2022/12/07 06:24:49;;;;;;;23.47;15.27;;;;;;;11.30;83.86;94524.50;5005170;28;20196;-48
2022/12/07 06:27:15;;;;;;;22.03;14.53;;;;;;;11.33;84.07;94534.44;5010489;28;20193;-49
2022/12/07 06:29:42;;;;;;;20.13;14.97;;;;;;;11.34;84.20;94538.59;5010340;28;20192;-48
2022/12/07 06:32:09;;;;;;;24.27;15.73;;;;;;;11.35;84.11;94529.97;5010665;28;20264;-48
2022/12/07 06:34:37;;;;;;;22.53;15.70;;;;;;;11.36;nan;94531.59;5010010;28;20203;-47
2022/12/07 06:37:04;;;;;;;22.77;14.83;;;;;;;11.37;83.71;94538.31;5010013;28;20706;-47
2022/12/07 06:39:31;;;;;;;25.00;15.97;;;;;;;11.39;83.99;94535.59;5009681;28;20228;-48
2022/12/07 06:41:58;;;;;;;23.10;16.10;;;;;;;11.38;83.76;94534.81;5010252;28;20201;-48
2022/12/07 06:44:26;;;;;;;22.50;14.87;;;;;;;11.41;83.86;94546.53;5009912;28;20196;-48
2022/12/07 06:46:53;;;;;;;22.27;16.33;;;;;;;11.43;83.46;94542.03;5009830;28;20648;-48
2022/12/07 06:49:20;;;;;;;22.20;16.40;;;;;;;11.39;83.61;94544.09;5009529;28;20273;-47
2022/12/07 06:51:48;;;;;;;26.67;15.67;;;;;;;11.45;83.58;94546.09;5009770;28;20242;-48
2022/12/07 06:54:16;;;;;;;25.97;17.07;;;;;;;11.46;83.42;94539.22;5009976;28;20669;-47
2022/12/07 06:56:43;;;;;;;24.40;17.37;;;;;;;11.47;83.29;94551.06;5010076;28;20278;-47
2022/12/07 06:59:10;;;;;;;22.60;16.93;;;;;;;11.48;82.98;94547.53;5009688;28;20203;-47
2022/12/07 07:01:37;;;;;;;26.73;17.80;;;;;;;11.50;82.89;94543.88;5010192;28;20204;-48
2022/12/07 07:04:04;;;;;;;27.70;18.57;;;;;;;11.52;82.63;94548.84;5009351;28;20200;-49
2022/12/07 07:06:31;;;;;;;26.63;17.27;;;;;;;11.48;82.68;94543.22;5009695;28;20709;-48
2022/12/07 07:08:59;;;;;;;26.70;18.17;;;;;;;11.54;82.53;94546.97;5010047;28;20246;-48
2022/12/07 07:11:26;;;;;;;28.57;18.93;;;;;;;11.52;82.50;94547.09;5009943;28;20205;-47
2022/12/07 07:13:53;;;;;;;26.33;18.53;;;;;;;11.54;82.14;94541.84;5010306;28;20227;-48
2022/12/07 07:16:21;;;;;;;29.50;20.03;;;;;;;11.56;82.10;94545.03;5009878;28;20192;-46
2022/12/07 07:18:48;;;;;;;29.43;18.97;;;;;;;11.58;81.90;94547.47;5009625;28;20195;-47
2022/12/07 07:21:15;;;;;;;29.00;19.57;;;;;;;11.60;81.79;94545.56;5009322;28;20579;-48
2022/12/07 07:23:41;;;;;;;30.33;19.73;;;;;;;11.62;81.63;94543.66;5009724;28;20191;-48
2022/12/07 07:26:09;;;;;;;30.13;19.33;;;;;;;11.60;81.50;94540.44;5009602;28;20203;-48
2022/12/07 07:28:36;;;;;;;29.70;20.43;;;;;;;11.64;81.01;94552.81;5009424;28;20652;-48
2022/12/07 07:31:03;;;;;;;29.53;19.70;;;;;;;11.67;81.14;94560.19;5009336;28;20192;-50
2022/12/07 07:33:30;;;;;;;28.37;21.03;;;;;;;11.71;80.80;94560.72;5007547;28;20180;-47
2022/12/07 07:35:57;;;;;;;29.40;20.63;;;;;;;11.74;80.60;94552.72;5007971;28;20215;-49
2022/12/07 07:38:23;;;;;;;30.57;20.20;;;;;;;11.78;80.58;94552.25;5009467;28;20184;-47
2022/12/07 07:40:50;;;;;;;30.60;20.47;;;;;;;11.84;80.35;94555.25;5009055;28;20212;-48
2022/12/07 07:43:18;;;;;;;30.60;20.77;;;;;;;11.90;80.03;94550.31;5008143;28;20662;-47
2022/12/07 07:45:45;;;;;;;26.83;20.17;;;;;;;11.99;79.92;94554.53;5011909;28;20268;-47
2022/12/07 07:48:12;;;;;;;34.57;22.50;;;;;;;12.06;79.47;94559.88;4989757;28;20676;-47
2022/12/07 07:50:39;;;;;;;30.67;20.70;;;;;;;12.13;79.21;94555.75;4989978;28;20192;-47
2022/12/07 07:53:06;;;;;;;35.00;21.90;;;;;;;12.20;79.04;94563.66;4999221;28;20196;-48
2022/12/07 07:55:33;;;;;;;31.13;20.93;;;;;;;12.25;78.98;94561.44;5009246;28;20238;-47
2022/12/07 07:57:59;;;;;;;35.60;23.13;;;;;;;12.28;78.76;94548.31;5009088;28;20215;-47
2022/12/07 08:00:28;;;;;;;32.60;21.23;;;;;;;12.37;78.61;94555.09;5009056;28;20586;-48
2022/12/07 08:02:54;;;;;;;33.10;21.57;;;;;;;12.41;78.22;94546.16;5009304;28;20184;-48
2022/12/07 08:05:21;;;;;;;33.07;21.13;;;;;;;12.46;78.20;94553.38;5008824;28;20185;-48
2022/12/07 08:07:48;;;;;;;34.13;22.53;;;;;;;12.52;78.05;94550.19;5008842;28;20185;-47
2022/12/07 08:10:15;;;;;;;32.47;21.27;;;;;;;12.63;77.74;94544.00;5009673;28;20557;-47
2022/12/07 08:15:26;;;;;;;33.23;21.73;;;;;;;12.74;77.25;94541.19;4996135;28;20200;-47
2022/12/07 08:17:54;;;;;;;30.07;20.73;;;;;;;12.79;77.22;94546.66;5008714;28;20195;-46
2022/12/07 08:20:21;;;;;;;31.37;20.87;;;;;;;12.80;77.13;94543.91;5008544;28;20354;-47
2022/12/07 08:22:48;;;;;;;32.43;20.90;;;;;;;12.81;76.98;94547.28;5009044;28;20184;-47
2022/12/07 08:25:14;;;;;;;33.20;20.97;;;;;;;12.81;77.01;94542.94;5009217;28;20181;-46
2022/12/07 08:27:41;;;;;;;37.30;22.13;;;;;;;12.35;77.03;94474.97;5008988;28;20181;-47
2022/12/07 08:30:09;;;;;;;35.73;21.77;;;;;;;12.77;76.91;94538.28;5009163;28;20185;-47
2022/12/07 08:32:36;;;;;;;34.57;21.00;;;;;;;12.77;76.91;94554.47;5009024;28;20235;-46
2022/12/07 08:35:05;;;;;;;31.93;21.57;;;;;;;12.75;76.79;94553.84;5024906;28;20179;-51
2022/12/07 08:37:32;;;;;;;31.03;22.57;;;;;;;12.71;76.66;94551.75;5010927;28;20196;-47
2022/12/07 08:39:59;;;;;;;31.27;21.67;;;;;;;12.72;76.76;94553.34;5007785;28;20220;-47
2022/12/07 08:42:29;;;;;;;28.37;21.07;;;;;;;12.71;76.63;94549.97;4994982;28;20204;-48
2022/12/07 08:44:56;;;;;;;31.93;21.70;;;;;;;12.71;76.33;94539.72;4988429;28;20212;-47
2022/12/07 08:47:24;;;;;;;30.77;21.00;;;;;;;12.71;76.35;94532.00;4989273;28;20201;-48
2022/12/07 08:49:54;;;;;;;33.20;22.73;;;;;;;12.72;76.05;94536.19;4995242;28;20219;-48
2022/12/07 08:52:22;;;;;;;31.57;22.17;;;;;;;12.73;76.18;94535.22;5006657;28;20571;-47
2022/12/07 08:54:50;;;;;;;32.93;21.83;;;;;;;12.74;75.97;94531.72;5011626;28;20196;-48
2022/12/07 08:57:17;;;;;;;30.03;21.13;;;;;;;12.76;75.92;94532.34;4997748;28;20228;-48
2022/12/07 08:59:43;;;;;;;31.33;21.70;;;;;;;12.76;75.73;94532.34;4992126;28;20197;-47
2022/12/07 09:02:10;;;;;;;30.03;21.83;;;;;;;12.80;75.75;94520.81;4992396;28;20323;-48
2022/12/07 09:04:37;;;;;;;34.80;23.00;;;;;;;12.84;75.55;94517.94;4992210;28;20197;-48
2022/12/07 09:07:04;;;;;;;31.13;22.80;;;;;;;12.85;75.47;94520.34;4995207;28;20240;-48
2022/12/07 09:09:33;;;;;;;32.90;22.20;;;;;;;12.85;75.19;94514.41;5011267;28;20247;-47
2022/12/07 09:12:00;;;;;;;32.80;23.13;;;;;;;12.92;75.30;94513.66;5009417;28;20192;-47
2022/12/07 09:14:26;;;;;;;34.37;22.07;;;;;;;12.94;75.04;94508.34;5005827;28;20196;-47
2022/12/07 09:16:53;;;;;;;32.43;21.37;;;;;;;13.00;75.02;94512.88;4992125;28;20208;-48
2022/12/07 09:19:20;;;;;;;28.80;21.50;;;;;;;12.99;74.95;94508.69;4992005;28;20193;-47
2022/12/07 09:21:47;;;;;;;35.10;21.53;;;;;;;13.04;74.95;94507.25;4997453;28;20251;-48
2022/12/07 09:24:14;;;;;;;34.17;22.90;;;;;;;13.11;74.73;94516.91;5007648;28;20193;-48
2022/12/07 09:26:42;;;;;;;33.53;22.37;;;;;;;13.13;74.78;94510.66;4999371;28;20204;-47
2022/12/07 09:29:09;;;;;;;31.63;22.50;;;;;;;13.22;74.23;94499.47;5006609;28;20188;-47
2022/12/07 09:31:38;;;;;;;29.10;20.20;;;;;;;13.27;74.20;94504.91;5008033;28;20211;-47
2022/12/07 09:34:06;;;;;;;29.57;21.17;;;;;;;13.33;74.02;94500.09;5005908;28;20190;-46
2022/12/07 09:36:32;;;;;;;28.60;21.27;;;;;;;13.38;73.85;94498.66;4997717;28;20196;-48
2022/12/07 09:38:59;;;;;;;33.03;21.07;;;;;;;13.41;73.72;94500.13;5006642;28;20188;-48
2022/12/07 09:41:29;;;;;;;30.57;20.87;;;;;;;13.35;73.66;94467.38;5009410;28;20228;-48
2022/12/07 09:44:04;;;;;;;29.27;20.70;;;;;;;13.48;73.51;94485.69;5009923;28;20203;-48
2022/12/07 09:46:36;;;;;;;28.80;20.30;;;;;;;13.51;73.43;94490.47;5000656;28;20575;-48
2022/12/07 09:49:03;;;;;;;30.90;21.07;;;;;;;13.52;73.55;94486.97;5011507;28;20192;-48
2022/12/07 09:51:30;;;;;;;26.60;18.73;;;;;;;13.53;73.21;94481.66;5010309;28;20192;-47
2022/12/07 09:54:00;;;;;;;27.27;19.80;;;;;;;13.60;73.17;94481.00;5008521;28;20212;-48
2022/12/07 09:56:26;;;;;;;31.60;20.77;;;;;;;13.64;73.45;94474.56;5000037;28;20251;-48
2022/12/07 09:59:02;;;;;;;32.70;19.23;;;;;;;13.73;72.99;94482.16;5004395;28;20197;-48
2022/12/07 10:01:31;;;;;;;27.30;19.60;;;;;;;13.77;72.87;94477.47;5009866;28;20254;-47
2022/12/07 10:04:06;;;;;;;33.63;20.43;;;;;;;13.86;72.73;94478.25;5009975;28;20235;-48
2022/12/07 10:06:33;;;;;;;30.20;20.83;;;;;;;13.92;72.44;94469.91;5004067;28;20619;-48
2022/12/07 10:09:00;;;;;;;33.07;21.17;;;;;;;14.03;72.31;94470.38;5003900;28;20192;-47
2022/12/07 10:11:27;;;;;;;23.67;17.43;;;;;;;14.10;71.92;94473.06;5009781;28;20576;-47
2022/12/07 10:13:54;;;;;;;28.87;20.70;;;;;;;14.18;71.85;94464.53;5006353;28;20283;-47
2022/12/07 10:16:37;;;;;;;28.50;20.00;;;;;;;14.28;71.55;94457.41;4994504;28;20289;-47
2022/12/07 10:19:24;;;;;;;31.80;19.50;;;;;;;14.40;71.35;94445.00;4990429;28;20201;-48
2022/12/07 10:22:11;;;;;;;27.50;19.47;;;;;;;14.52;71.03;94449.66;5005061;28;20224;-47
2022/12/07 10:24:40;;;;;;;25.20;17.90;;;;;;;14.59;70.69;94438.69;5009707;28;20568;-47
2022/12/07 10:27:19;;;;;;;25.57;18.47;;;;;;;14.74;70.56;94434.44;5009365;28;20196;-48
2022/12/07 10:29:50;;;;;;;27.43;19.30;;;;;;;14.84;70.48;94431.63;4998244;28;20279;-47
2022/12/07 10:32:31;;;;;;;23.47;16.50;;;;;;;14.92;69.89;94426.44;5007461;28;20201;-47
2022/12/07 10:35:20;;;;;;;25.93;17.90;;;;;;;14.99;70.14;94424.78;5009903;28;20189;-47
2022/12/07 10:37:47;;;;;;;28.03;18.30;;;;;;;15.02;70.41;94422.66;5002172;28;20585;-48
2022/12/07 10:40:27;;;;;;;31.83;18.40;;;;;;;15.05;70.18;94417.16;5003338;28;20343;-47
2022/12/07 10:43:06;;;;;;;28.87;18.30;;;;;;;14.84;69.81;94385.28;5007653;28;20184;-46
2022/12/07 10:45:35;;;;;;;24.63;18.20;;;;;;;15.13;69.82;94420.66;4997544;28;20207;-48
2022/12/07 10:48:11;;;;;;;26.83;18.07;;;;;;;15.18;69.77;94420.94;5007298;28;20613;-48
2022/12/07 10:50:59;;;;;;;27.27;17.57;;;;;;;15.18;69.60;94411.44;5005774;28;20193;-47
2022/12/07 10:53:38;;;;;;;22.87;17.30;;;;;;;15.18;69.54;94403.72;5008210;28;20196;-47
2022/12/07 10:56:28;;;;;;;24.43;17.07;;;;;;;15.20;69.42;94401.78;5009368;28;20738;-48
2022/12/07 10:59:10;;;;;;;23.03;17.10;;;;;;;15.22;69.50;94396.44;5000390;28;20246;-47
2022/12/07 11:01:44;;;;;;;26.80;17.47;;;;;;;15.29;69.38;94394.78;4995859;28;20228;-48
2022/12/07 11:04:26;;;;;;;23.57;17.07;;;;;;;15.40;68.99;94386.63;4993648;28;20228;-48
2022/12/07 11:06:59;;;;;;;24.90;16.37;;;;;;;15.52;68.65;94387.81;4989605;28;20612;-47
2022/12/07 11:09:57;;;;;;;23.67;17.20;;;;;;;15.61;68.26;94388.53;4998525;28;20189;-46
2022/12/07 11:12:34;;;;;;;25.00;16.97;;;;;;;15.76;67.96;94386.00;5000597;28;20235;-47
2022/12/07 11:15:05;;;;;;;27.20;18.07;;;;;;;15.86;67.67;94383.16;5009428;28;20296;-48
2022/12/07 11:17:44;;;;;;;26.43;16.40;;;;;;;15.88;67.62;94383.78;4997366;28;20275;-47
2022/12/07 11:20:30;;;;;;;23.73;15.43;;;;;;;15.84;67.67;94369.63;4994738;28;20195;-47
2022/12/07 11:23:04;;;;;;;23.13;15.87;;;;;;;15.83;67.67;94379.16;5007185;28;20661;-47
2022/12/07 11:25:35;;;;;;;26.60;16.23;;;;;;;15.90;67.55;94374.09;4998273;28;20615;-47
2022/12/07 11:28:19;;;;;;;22.23;16.03;;;;;;;15.90;67.21;94356.06;5000289;28;20200;-48
2022/12/07 11:30:58;;;;;;;21.77;15.33;;;;;;;16.05;66.95;94359.41;5008234;28;20594;-47
2022/12/07 11:33:31;;;;;;;20.33;14.23;;;;;;;16.11;66.78;94345.81;4990891;28;20201;-47